Time;durP1;ratioP1;P1;durP2;ratioP2;P2;SDS_P1;SDS_P2;PMS_P1;PMS_P2;Temp;Humidity;BMP_temperature;BMP_pressure;BME280_temperature;BME280_humidity;BME280_pressure;Samples;Min_cycle;Max_cycle;Signal;HPM_P1;HPM_P2
2022/09/16 00:02:19;;;;;;;7.85;1.25;;;12.20;99.90;;;;;;5040431;28;20068;-64
2022/09/16 00:04:44;;;;;;;3.95;1.30;;;12.10;99.90;;;;;;5030276;28;20053;-64
2022/09/16 00:07:10;;;;;;;3.80;0.90;;;12.10;99.90;;;;;;5049804;28;20075;-64
2022/09/16 00:09:37;;;;;;;5.70;1.05;;;11.90;99.90;;;;;;5041593;28;20036;-64
2022/09/16 00:12:03;;;;;;;6.15;1.30;;;12.00;99.90;;;;;;5054268;28;20142;-64
2022/09/16 00:14:29;;;;;;;5.13;1.02;;;12.00;99.90;;;;;;5055664;28;20037;-64
2022/09/16 00:16:55;;;;;;;4.03;1.00;;;12.20;99.90;;;;;;5055756;28;20041;-64
2022/09/16 00:19:20;;;;;;;1.23;1.00;;;12.00;99.90;;;;;;5055588;28;20048;-64
2022/09/16 00:21:47;;;;;;;6.28;1.40;;;12.20;99.90;;;;;;5055497;28;20044;-64
2022/09/16 00:24:15;;;;;;;3.33;0.98;;;12.00;99.90;;;;;;5039977;28;20491;-64
2022/09/16 00:26:44;;;;;;;5.18;1.20;;;12.00;99.90;;;;;;5040462;28;20080;-64
2022/09/16 00:29:09;;;;;;;5.00;0.93;;;12.10;99.90;;;;;;5055557;28;20064;-64
2022/09/16 00:31:35;;;;;;;5.82;1.15;;;12.00;99.90;;;;;;5053997;28;20072;-64
2022/09/16 00:34:01;;;;;;;3.75;1.30;;;12.00;99.90;;;;;;5055450;28;20037;-64
2022/09/16 00:36:26;;;;;;;6.93;1.08;;;12.20;99.90;;;;;;5052360;28;20091;-64
2022/09/16 00:38:56;;;;;;;3.92;1.52;;;12.10;99.90;;;;;;5042845;28;20094;-64
2022/09/16 00:41:31;;;;;;;4.60;1.13;;;12.10;99.90;;;;;;5036963;28;20041;-64
2022/09/16 00:43:57;;;;;;;3.92;1.30;;;12.10;99.90;;;;;;5048820;28;20036;-64
2022/09/16 00:46:32;;;;;;;4.55;1.08;;;12.00;99.90;;;;;;5053695;28;20417;-64
2022/09/16 00:49:04;;;;;;;2.58;0.98;;;12.20;99.90;;;;;;5054549;28;20437;-64
2022/09/16 00:51:30;;;;;;;3.58;0.77;;;12.00;99.90;;;;;;5053337;28;20076;-64
2022/09/16 00:54:01;;;;;;;5.18;1.10;;;12.10;99.90;;;;;;5055121;28;20039;-64
2022/09/16 00:56:29;;;;;;;5.03;1.10;;;12.20;99.90;;;;;;5053575;28;20049;-64
2022/09/16 00:59:05;;;;;;;5.22;0.90;;;12.10;99.90;;;;;;5053866;28;20076;-64
2022/09/16 01:01:31;;;;;;;5.85;1.75;;;12.10;99.90;;;;;;5054637;28;20053;-64
2022/09/16 01:04:02;;;;;;;1.67;0.85;;;12.20;99.90;;;;;;5054587;28;20103;-64
2022/09/16 01:06:29;;;;;;;4.35;0.88;;;12.20;99.90;;;;;;5053341;28;20442;-64
2022/09/16 01:08:56;;;;;;;3.83;1.20;;;12.10;99.90;;;;;;5054741;28;20041;-64
2022/09/16 01:11:23;;;;;;;8.30;1.33;;;12.20;99.90;;;;;;5053589;28;20052;-64
2022/09/16 01:13:50;;;;;;;3.50;0.93;;;12.10;99.90;;;;;;5053419;28;20068;-64
2022/09/16 01:16:29;;;;;;;7.32;1.10;;;12.10;99.90;;;;;;5053222;28;20120;-64
2022/09/16 01:19:10;;;;;;;5.30;0.98;;;12.20;99.90;;;;;;5053276;28;20441;-64
2022/09/16 01:21:37;;;;;;;4.43;0.85;;;12.20;99.90;;;;;;5053133;28;20049;-64
2022/09/16 01:24:21;;;;;;;5.07;1.00;;;12.10;99.90;;;;;;5053115;28;20053;-64
2022/09/16 01:27:11;;;;;;;3.78;0.98;;;12.10;99.90;;;;;;5052983;28;20045;-64
2022/09/16 01:29:46;;;;;;;5.30;1.10;;;12.00;99.90;;;;;;5054399;28;20037;-64
2022/09/16 01:32:14;;;;;;;4.47;1.13;;;11.90;99.90;;;;;;5052941;28;20041;-64
2022/09/16 01:34:52;;;;;;;4.25;0.80;;;12.00;99.90;;;;;;5052931;28;20071;-64
2022/09/16 01:37:53;;;;;;;4.32;0.88;;;12.00;99.90;;;;;;5054124;28;20067;-64
2022/09/16 01:40:32;;;;;;;7.68;1.33;;;11.90;99.90;;;;;;5054218;28;20108;-64
2022/09/16 01:43:06;;;;;;;6.82;1.13;;;11.90;99.90;;;;;;5036026;28;20045;-64
2022/09/16 01:45:49;;;;;;;3.40;0.88;;;11.90;99.90;;;;;;5052690;28;20068;-64
2022/09/16 01:48:28;;;;;;;4.68;1.20;;;12.00;99.90;;;;;;5052696;28;20140;-64
2022/09/16 01:51:02;;;;;;;7.22;2.20;;;12.00;99.90;;;;;;5054050;28;20037;-64
2022/09/16 01:53:47;;;;;;;4.65;1.02;;;12.10;99.90;;;;;;5053693;28;20041;-64
2022/09/16 01:56:54;;;;;;;4.63;1.03;;;12.00;99.90;;;;;;5052562;28;20053;-64
2022/09/16 01:59:27;;;;;;;6.60;1.23;;;11.90;99.90;;;;;;5044310;28;20059;-64
2022/09/16 02:02:11;;;;;;;2.72;0.80;;;11.90;99.90;;;;;;5053053;28;20068;-64
2022/09/16 02:04:46;;;;;;;2.75;1.13;;;12.00;99.90;;;;;;5052515;28;20084;-64
2022/09/16 02:07:15;;;;;;;2.72;1.00;;;11.80;99.90;;;;;;5052357;28;20040;-64
2022/09/16 02:09:47;;;;;;;4.13;0.80;;;11.90;99.90;;;;;;5053649;28;20067;-64
2022/09/16 02:12:20;;;;;;;5.88;1.05;;;11.80;99.90;;;;;;5053432;28;20025;-64
2022/09/16 02:14:48;;;;;;;4.10;1.08;;;11.80;99.90;;;;;;5053469;28;20051;-64
2022/09/16 02:17:17;;;;;;;5.15;1.05;;;11.60;99.90;;;;;;5053125;28;20467;-64
2022/09/16 02:19:53;;;;;;;5.47;1.00;;;11.60;99.90;;;;;;5053323;28;20045;-64
2022/09/16 02:22:24;;;;;;;3.00;0.80;;;11.70;99.90;;;;;;5052098;28;20041;-64
2022/09/16 02:24:51;;;;;;;3.80;1.10;;;11.50;99.90;;;;;;5053191;28;20124;-64
2022/09/16 02:27:20;;;;;;;5.75;1.30;;;11.50;99.90;;;;;;5053122;28;20392;-64
2022/09/16 02:29:51;;;;;;;4.60;1.10;;;11.40;99.90;;;;;;5051842;28;20083;-64
2022/09/16 02:32:19;;;;;;;3.08;0.93;;;11.30;99.90;;;;;;5051417;28;20035;-64
2022/09/16 02:34:47;;;;;;;7.63;1.70;;;11.30;99.90;;;;;;5052040;28;20057;-64
2022/09/16 02:37:36;;;;;;;3.13;1.15;;;11.30;99.90;;;;;;5053131;28;20120;-64
2022/09/16 02:40:09;;;;;;;2.70;1.42;;;11.50;99.90;;;;;;5051689;28;20122;-64
2022/09/16 02:42:35;;;;;;;4.93;1.20;;;11.30;99.90;;;;;;5053018;28;20036;-64
2022/09/16 02:45:02;;;;;;;6.35;2.55;;;11.20;99.90;;;;;;5051763;28;20045;-64
2022/09/16 02:48:00;;;;;;;3.97;1.20;;;11.50;99.90;;;;;;5051599;28;20120;-64
2022/09/16 02:50:29;;;;;;;4.28;1.00;;;11.50;99.90;;;;;;5046467;28;20491;-64
2022/09/16 02:53:03;;;;;;;3.90;1.08;;;11.50;99.90;;;;;;5051231;28;20045;-64
2022/09/16 02:55:56;;;;;;;7.07;1.25;;;11.50;99.90;;;;;;5053003;28;20041;-64
2022/09/16 02:58:22;;;;;;;4.80;1.15;;;11.50;99.90;;;;;;5050553;28;20053;-64
2022/09/16 03:00:51;;;;;;;2.25;1.23;;;11.40;99.90;;;;;;5052514;28;20414;-64
2022/09/16 03:03:17;;;;;;;3.60;1.20;;;11.30;99.90;;;;;;5052681;28;20419;-64
2022/09/16 03:06:05;;;;;;;6.30;1.45;;;11.50;99.90;;;;;;5051492;28;20049;-64
2022/09/16 03:08:32;;;;;;;3.58;1.30;;;11.40;99.90;;;;;;5051574;28;20041;-64
2022/09/16 03:11:05;;;;;;;5.10;1.27;;;11.30;99.90;;;;;;5051414;28;20091;-64
2022/09/16 03:13:43;;;;;;;4.85;1.30;;;11.40;99.90;;;;;;5054909;28;20037;-64
2022/09/16 03:16:51;;;;;;;5.53;1.25;;;11.30;99.90;;;;;;5055501;28;20045;-64
2022/09/16 03:19:24;;;;;;;3.67;1.10;;;11.40;99.90;;;;;;5056638;28;20395;-64
2022/09/16 03:21:52;;;;;;;3.42;1.73;;;11.40;99.90;;;;;;5056293;28;20095;-64
2022/09/16 03:24:37;;;;;;;3.97;1.10;;;11.30;99.90;;;;;;5056786;28;20041;-64
2022/09/16 03:27:17;;;;;;;5.85;1.13;;;11.30;99.90;;;;;;5056519;28;20116;-64
2022/09/16 03:29:53;;;;;;;5.53;1.40;;;11.30;99.90;;;;;;5038660;28;20107;-64
2022/09/16 03:32:30;;;;;;;7.35;1.58;;;11.30;99.90;;;;;;5056130;28;20036;-64
2022/09/16 03:35:01;;;;;;;6.00;1.00;;;11.30;99.90;;;;;;5055360;28;20072;-64
2022/09/16 03:37:33;;;;;;;4.93;1.15;;;11.30;99.90;;;;;;5056295;28;20483;-64
2022/09/16 03:40:01;;;;;;;6.30;1.23;;;11.20;99.90;;;;;;5056326;28;20056;-64
2022/09/16 03:42:27;;;;;;;7.63;1.30;;;11.40;99.90;;;;;;5056063;28;20049;-64
2022/09/16 03:44:53;;;;;;;5.57;1.58;;;11.30;99.90;;;;;;5057863;28;20132;-64
2022/09/16 03:47:18;;;;;;;6.00;1.10;;;11.40;99.90;;;;;;5056336;28;20036;-64
2022/09/16 03:49:44;;;;;;;8.13;1.10;;;11.30;99.90;;;;;;5055140;28;20044;-64
2022/09/16 03:52:09;;;;;;;7.28;1.17;;;11.30;99.90;;;;;;5056182;28;20032;-64
2022/09/16 03:54:36;;;;;;;7.70;1.35;;;11.10;99.90;;;;;;5056116;28;20040;-64
2022/09/16 03:57:03;;;;;;;3.42;0.80;;;11.10;99.90;;;;;;5056169;28;20033;-64
2022/09/16 03:59:30;;;;;;;5.25;1.00;;;11.00;99.90;;;;;;5055690;28;20048;-64
2022/09/16 04:01:55;;;;;;;4.60;1.23;;;10.90;99.90;;;;;;5055592;28;20045;-64
2022/09/16 04:04:21;;;;;;;6.43;1.08;;;11.00;99.90;;;;;;5054535;28;20047;-64
2022/09/16 04:06:47;;;;;;;3.13;1.15;;;10.90;99.90;;;;;;5055844;28;20043;-64
2022/09/16 04:09:12;;;;;;;10.05;1.63;;;11.00;99.90;;;;;;5055954;28;20112;-64
2022/09/16 04:11:39;;;;;;;7.47;1.98;;;10.90;99.90;;;;;;5054487;28;20045;-64
2022/09/16 04:14:05;;;;;;;8.02;1.73;;;10.90;99.90;;;;;;5054239;28;20036;-64
2022/09/16 04:16:31;;;;;;;5.55;1.52;;;10.90;99.90;;;;;;5055626;28;20056;-64
2022/09/16 04:18:57;;;;;;;3.97;1.50;;;11.10;99.90;;;;;;5054207;28;20055;-64
2022/09/16 04:21:22;;;;;;;2.25;1.30;;;11.00;99.90;;;;;;5054238;28;20049;-64
2022/09/16 04:23:49;;;;;;;6.43;1.25;;;10.80;99.90;;;;;;5054970;28;20376;-64
2022/09/16 04:26:15;;;;;;;5.95;1.85;;;10.90;99.90;;;;;;5053983;28;20048;-64
2022/09/16 04:28:41;;;;;;;4.85;1.50;;;10.90;99.90;;;;;;5055388;28;20073;-64
2022/09/16 04:31:10;;;;;;;8.52;1.55;;;10.80;99.90;;;;;;5037424;28;20041;-64
2022/09/16 04:33:36;;;;;;;3.53;1.20;;;10.80;99.90;;;;;;5055181;28;20518;-64
2022/09/16 04:36:07;;;;;;;3.60;1.17;;;10.90;99.90;;;;;;5054004;28;20044;-64
2022/09/16 04:38:34;;;;;;;10.25;1.90;;;10.90;99.90;;;;;;5054292;28;20045;-64
2022/09/16 04:41:01;;;;;;;4.57;1.40;;;10.70;99.90;;;;;;5053704;28;20518;-64
2022/09/16 04:43:27;;;;;;;4.75;1.17;;;10.70;99.90;;;;;;5055105;28;20094;-64
2022/09/16 04:45:53;;;;;;;3.90;1.08;;;10.80;99.90;;;;;;5057331;28;20508;-64
2022/09/16 04:48:18;;;;;;;5.00;1.40;;;10.90;99.90;;;;;;5053813;28;20033;-64
2022/09/16 04:50:44;;;;;;;7.32;1.55;;;10.70;99.90;;;;;;5055113;28;20067;-64
2022/09/16 04:53:09;;;;;;;5.93;1.10;;;10.70;99.90;;;;;;5053523;28;20578;-64
2022/09/16 04:55:36;;;;;;;3.22;1.10;;;10.70;99.90;;;;;;5053554;28;20045;-64
2022/09/16 04:58:02;;;;;;;5.68;1.38;;;10.70;99.90;;;;;;5054541;28;20106;-64
2022/09/16 05:00:27;;;;;;;7.70;1.20;;;10.60;99.90;;;;;;5053567;28;20056;-64
2022/09/16 05:02:53;;;;;;;6.38;1.52;;;10.60;99.90;;;;;;5054686;28;20530;-64
2022/09/16 05:05:20;;;;;;;4.97;1.17;;;10.60;99.90;;;;;;5053198;28;20045;-64
2022/09/16 05:07:45;;;;;;;9.60;1.42;;;10.60;99.90;;;;;;5054626;28;20475;-64
2022/09/16 05:10:11;;;;;;;5.65;2.53;;;10.50;99.90;;;;;;5053200;28;20067;-64
2022/09/16 05:12:37;;;;;;;5.38;1.40;;;10.40;99.90;;;;;;5053308;28;20037;-64
2022/09/16 05:15:04;;;;;;;3.80;1.40;;;10.50;99.90;;;;;;5053151;28;20175;-64
2022/09/16 05:17:30;;;;;;;5.07;1.27;;;10.40;99.90;;;;;;5054719;28;20047;-64
2022/09/16 05:19:56;;;;;;;3.53;1.30;;;10.30;99.90;;;;;;5054698;28;20047;-64
2022/09/16 05:22:22;;;;;;;5.78;1.45;;;10.40;99.90;;;;;;5039363;28;20510;-64
2022/09/16 05:24:48;;;;;;;5.80;1.50;;;10.30;99.90;;;;;;5054228;28;20041;-64
2022/09/16 05:27:14;;;;;;;8.45;1.50;;;10.30;99.90;;;;;;5052863;28;20040;-64
2022/09/16 05:29:40;;;;;;;6.18;1.40;;;;;;;;;;5054278;28;20572;-64
2022/09/16 05:32:06;;;;;;;6.78;2.63;;;10.20;99.90;;;;;;5054316;28;20037;-64
2022/09/16 05:34:34;;;;;;;4.82;1.50;;;10.50;99.90;;;;;;5052614;28;20048;-64
2022/09/16 05:37:01;;;;;;;4.85;1.35;;;;;;;;;;5053509;28;20095;-64
2022/09/16 05:39:26;;;;;;;6.03;1.52;;;10.40;99.90;;;;;;5054270;28;20090;-64
2022/09/16 05:41:55;;;;;;;11.20;2.53;;;10.30;99.90;;;;;;5052723;28;20033;-64
2022/09/16 05:44:21;;;;;;;5.30;1.67;;;10.30;99.90;;;;;;5053724;28;20486;-64
2022/09/16 05:46:46;;;;;;;5.28;1.23;;;10.40;99.90;;;;;;5052570;28;20049;-64
2022/09/16 05:49:12;;;;;;;7.90;1.42;;;10.60;99.90;;;;;;5053974;28;20029;-64
2022/09/16 05:51:39;;;;;;;5.18;1.23;;;10.50;99.90;;;;;;5053550;28;20039;-64
2022/09/16 05:54:04;;;;;;;4.72;1.02;;;10.60;99.90;;;;;;5053628;28;20037;-64
2022/09/16 05:56:31;;;;;;;6.03;1.20;;;;;;;;;;5053664;28;20482;-64
2022/09/16 05:58:59;;;;;;;11.93;1.52;;;10.60;99.90;;;;;;5053789;28;20044;-64
2022/09/16 06:01:32;;;;;;;8.00;1.40;;;10.80;99.90;;;;;;5053407;28;20053;-64
2022/09/16 06:04:00;;;;;;;7.97;1.60;;;11.00;99.90;;;;;;5052363;28;20072;-64
2022/09/16 06:06:26;;;;;;;9.45;1.70;;;10.70;99.90;;;;;;5051995;28;20073;-64
2022/09/16 06:08:56;;;;;;;6.30;1.67;;;10.80;99.90;;;;;;5053676;28;20431;-64
2022/09/16 06:11:22;;;;;;;10.68;2.15;;;10.80;99.90;;;;;;5052065;28;20049;-64
2022/09/16 06:13:56;;;;;;;9.77;1.33;;;10.90;99.90;;;;;;5053323;28;20039;-64
2022/09/16 06:16:24;;;;;;;7.63;2.20;;;10.90;99.90;;;;;;5053527;28;20047;-64
2022/09/16 06:18:50;;;;;;;6.13;1.25;;;10.90;99.90;;;;;;5053152;28;20036;-64
2022/09/16 06:21:16;;;;;;;6.32;2.20;;;10.90;99.90;;;;;;5053365;28;20572;-64
2022/09/16 06:23:41;;;;;;;14.10;2.40;;;11.10;99.90;;;;;;5051514;28;20410;-64
2022/09/16 06:26:10;;;;;;;7.90;2.75;;;11.20;99.90;;;;;;5051290;28;20032;-64
2022/09/16 06:28:35;;;;;;;9.75;1.83;;;11.30;99.90;;;;;;5051321;28;20033;-64
2022/09/16 06:31:09;;;;;;;10.57;1.92;;;11.50;99.90;;;;;;5051237;28;20094;-64
2022/09/16 06:33:35;;;;;;;4.70;1.55;;;11.40;99.90;;;;;;5052510;28;20028;-64
2022/09/16 06:36:05;;;;;;;8.07;1.58;;;11.50;99.90;;;;;;5032612;28;20511;-64
2022/09/16 06:38:30;;;;;;;8.35;1.70;;;11.80;99.90;;;;;;5035398;28;20024;-64
2022/09/16 06:41:00;;;;;;;7.90;2.00;;;11.80;99.90;;;;;;5032284;28;20071;-64
2022/09/16 06:43:26;;;;;;;9.00;1.60;;;11.90;99.90;;;;;;5033113;28;20045;-64
2022/09/16 06:45:59;;;;;;;10.10;1.42;;;11.90;99.90;;;;;;5040014;28;20117;-64
2022/09/16 06:48:26;;;;;;;7.78;1.48;;;11.90;99.90;;;;;;5034333;28;20033;-64
2022/09/16 06:51:05;;;;;;;10.50;1.73;;;11.90;99.90;;;;;;5033576;28;20094;-64
2022/09/16 06:53:32;;;;;;;5.03;1.30;;;12.00;99.90;;;;;;5035241;28;20037;-64
2022/09/16 06:56:03;;;;;;;6.40;1.77;;;12.00;99.90;;;;;;5031170;28;20136;-64
2022/09/16 06:58:32;;;;;;;12.75;1.90;;;12.00;99.90;;;;;;5033863;28;20041;-64
2022/09/16 07:00:58;;;;;;;7.35;1.50;;;12.20;99.90;;;;;;5049122;28;20092;-64
2022/09/16 07:03:24;;;;;;;5.75;1.40;;;;;;;;;;5067382;28;20427;-64
2022/09/16 07:05:59;;;;;;;9.45;1.60;;;12.30;99.90;;;;;;5051249;28;20051;-65
2022/09/16 07:08:24;;;;;;;6.25;1.45;;;12.40;99.90;;;;;;5034618;28;20082;-65
2022/09/16 07:11:01;;;;;;;8.32;1.55;;;12.50;99.90;;;;;;5052652;28;20037;-65
2022/09/16 07:13:27;;;;;;;4.72;1.55;;;12.60;99.90;;;;;;5051436;28;20123;-65
2022/09/16 07:15:52;;;;;;;8.90;1.25;;;12.80;99.90;;;;;;5052529;28;20116;-65
2022/09/16 07:18:19;;;;;;;8.63;1.73;;;12.70;99.90;;;;;;5052559;28;20084;-65
2022/09/16 07:20:44;;;;;;;12.93;1.52;;;12.90;99.90;;;;;;5051428;28;20029;-65
2022/09/16 07:23:10;;;;;;;6.82;1.35;;;12.80;99.90;;;;;;5051980;28;20032;-65
2022/09/16 07:25:36;;;;;;;10.00;1.45;;;13.10;99.90;;;;;;5051799;28;20037;-65
2022/09/16 07:28:02;;;;;;;5.60;1.48;;;13.20;99.90;;;;;;5052403;28;20033;-65
2022/09/16 07:30:29;;;;;;;8.23;1.45;;;13.40;99.90;;;;;;5052216;28;20041;-65
2022/09/16 07:32:54;;;;;;;11.48;1.52;;;13.40;99.90;;;;;;5051313;28;20044;-66
2022/09/16 07:35:20;;;;;;;8.43;1.58;;;13.70;99.90;;;;;;5052127;28;20525;-65
2022/09/16 07:37:46;;;;;;;10.13;1.58;;;13.70;99.90;;;;;;5051079;28;20064;-66
2022/09/16 07:40:12;;;;;;;9.77;1.63;;;13.80;99.90;;;;;;5052565;28;20045;-65
2022/09/16 07:42:38;;;;;;;6.90;1.38;;;;;;;;;;5052047;28;20037;-65
2022/09/16 07:45:04;;;;;;;7.15;1.42;;;14.00;99.90;;;;;;5055163;28;20499;-65
2022/09/16 07:47:30;;;;;;;10.93;1.90;;;14.00;99.90;;;;;;5050753;28;20052;-66
2022/09/16 07:49:56;;;;;;;9.55;1.42;;;13.90;99.90;;;;;;5051263;28;20037;-65
2022/09/16 07:52:27;;;;;;;9.07;2.13;;;14.20;99.90;;;;;;5044725;28;20499;-66
2022/09/16 07:54:54;;;;;;;8.88;1.98;;;14.20;99.90;;;;;;5050675;28;20122;-65
2022/09/16 07:57:20;;;;;;;6.32;1.13;;;14.20;99.90;;;;;;5051212;28;20037;-65
2022/09/16 07:59:46;;;;;;;13.10;1.90;;;14.10;99.90;;;;;;5053774;28;20044;-66
2022/09/16 08:02:12;;;;;;;13.75;1.55;;;14.40;99.90;;;;;;5052438;28;20494;-65
2022/09/16 08:04:38;;;;;;;11.02;1.38;;;14.40;99.90;;;;;;5055524;28;20037;-66
2022/09/16 08:07:05;;;;;;;6.07;1.20;;;14.50;99.90;;;;;;5055450;28;20033;-65
2022/09/16 08:09:31;;;;;;;12.10;2.00;;;;;;;;;;5055840;28;20041;-66
2022/09/16 08:11:57;;;;;;;10.63;1.85;;;15.10;99.90;;;;;;5054386;28;20094;-65
2022/09/16 08:14:22;;;;;;;9.73;1.95;;;15.00;99.90;;;;;;5054056;28;20044;-65
2022/09/16 08:16:50;;;;;;;6.53;1.13;;;15.10;99.90;;;;;;5055386;28;20033;-65
2022/09/16 08:19:16;;;;;;;9.43;1.23;;;15.00;99.90;;;;;;5055385;28;20479;-65
2022/09/16 08:21:42;;;;;;;8.02;1.40;;;15.20;99.90;;;;;;5054271;28;20048;-65
2022/09/16 08:24:08;;;;;;;13.88;2.03;;;15.30;99.90;;;;;;5055203;28;20069;-65
2022/09/16 08:26:34;;;;;;;9.32;2.25;;;15.20;99.90;;;;;;5055300;28;20048;-65
2022/09/16 08:29:00;;;;;;;8.00;2.28;;;15.30;99.90;;;;;;5055515;28;20037;-65
2022/09/16 08:31:26;;;;;;;9.85;1.65;;;15.20;99.90;;;;;;5054926;28;20044;-65
2022/09/16 08:33:52;;;;;;;10.82;1.83;;;15.10;99.90;;;;;;5054190;28;20040;-65
2022/09/16 08:36:20;;;;;;;11.88;2.00;;;14.90;99.90;;;;;;5054651;28;20641;-65
2022/09/16 08:38:49;;;;;;;10.38;2.03;;;14.90;99.90;;;;;;5055167;28;20044;-65
2022/09/16 08:41:53;;;;;;;7.22;1.63;;;15.00;99.90;;;;;;5053664;28;20040;-65
2022/09/16 08:44:37;;;;;;;6.65;1.50;;;14.80;99.90;;;;;;5056839;28;20076;-65
2022/09/16 08:47:37;;;;;;;18.27;2.17;;;15.10;99.90;;;;;;5046843;28;20049;-65
2022/09/16 08:50:09;;;;;;;12.90;2.17;;;15.30;99.90;;;;;;5041247;28;20064;-65
2022/09/16 08:52:37;;;;;;;9.38;1.98;;;15.90;99.90;;;;;;5053673;28;20112;-65
2022/09/16 08:55:25;;;;;;;10.80;2.38;;;18.00;99.90;;;;;;5053649;28;20505;-65
2022/09/16 08:58:01;;;;;;;9.73;1.83;;;17.90;99.90;;;;;;5054974;28;20059;-65
2022/09/16 09:00:27;;;;;;;8.93;2.28;;;18.10;99.90;;;;;;5053018;28;20067;-65
2022/09/16 09:03:01;;;;;;;9.07;1.70;;;18.10;99.90;;;;;;5053623;28;20128;-65
2022/09/16 09:05:51;;;;;;;7.13;1.40;;;17.80;99.90;;;;;;5040271;28;20085;-65
2022/09/16 09:08:19;;;;;;;8.18;2.25;;;17.60;99.90;;;;;;5054265;28;20051;-65
2022/09/16 09:10:53;;;;;;;11.32;1.63;;;17.60;99.90;;;;;;5054342;28;20045;-66
2022/09/16 09:13:47;;;;;;;16.08;2.33;;;17.50;99.90;;;;;;5054571;28;20036;-66
2022/09/16 09:16:40;;;;;;;10.65;1.90;;;17.70;99.90;;;;;;5054495;28;20044;-65
2022/09/16 09:19:20;;;;;;;11.50;1.63;;;17.50;99.90;;;;;;5041774;28;20043;-66
2022/09/16 09:22:31;;;;;;;5.35;1.20;;;17.80;99.90;;;;;;5053199;28;20041;-65
2022/09/16 09:25:18;;;;;;;7.07;1.33;;;17.50;99.90;;;;;;5053297;28;20049;-66
2022/09/16 09:28:10;;;;;;;12.70;1.48;;;17.80;99.90;;;;;;5042487;28;20495;-66
2022/09/16 09:30:41;;;;;;;8.45;1.33;;;17.90;99.90;;;;;;5052346;28;20048;-67
2022/09/16 09:33:19;;;;;;;11.68;1.42;;;18.00;99.90;;;;;;5053012;28;20519;-68
2022/09/16 09:35:46;;;;;;;12.15;1.40;;;18.10;99.90;;;;;;5052954;28;20040;-67
2022/09/16 09:38:51;;;;;;;7.07;1.27;;;18.30;99.90;;;;;;5052993;28;20447;-67
2022/09/16 09:41:33;;;;;;;13.02;2.85;;;18.30;99.90;;;;;;5048999;28;20406;-67
2022/09/16 09:44:36;;;;;;;7.15;1.30;;;18.40;99.90;;;;;;5055910;28;20581;-67
2022/09/16 09:47:09;;;;;;;5.63;1.35;;;18.30;99.90;;;;;;5043234;28;20053;-66
2022/09/16 09:49:41;;;;;;;12.05;1.70;;;18.30;99.90;;;;;;5053887;28;20047;-67
2022/09/16 09:52:16;;;;;;;9.00;1.20;;;18.20;99.90;;;;;;5053696;28;20037;-68
2022/09/16 09:54:48;;;;;;;10.23;1.73;;;18.20;99.90;;;;;;5053365;28;20033;-67
2022/09/16 09:57:24;;;;;;;6.05;1.10;;;17.90;99.90;;;;;;5046024;28;20423;-68
2022/09/16 10:00:11;;;;;;;12.35;1.45;;;17.80;99.90;;;;;;5049400;28;20076;-67
2022/09/16 10:02:39;;;;;;;9.20;1.40;;;17.70;99.90;;;;;;5051206;28;20098;-68
2022/09/16 10:05:12;;;;;;;10.90;2.28;;;17.50;99.90;;;;;;5052321;28;20082;-67
2022/09/16 10:07:38;;;;;;;9.65;1.30;;;17.40;99.90;;;;;;5051502;28;20548;-68
2022/09/16 10:10:14;;;;;;;9.18;1.55;;;17.70;99.90;;;;;;5051260;28;20053;-67
2022/09/16 10:12:40;;;;;;;10.23;1.50;;;17.50;99.90;;;;;;5052363;28;20037;-67
2022/09/16 10:15:17;;;;;;;4.97;1.15;;;17.60;99.90;;;;;;5046027;28;20045;-68
2022/09/16 10:17:48;;;;;;;7.40;1.30;;;17.80;99.90;;;;;;5044740;28;20053;-67
2022/09/16 10:20:33;;;;;;;10.00;1.67;;;18.70;99.90;;;;;;5032960;28;20085;-68
2022/09/16 10:23:21;;;;;;;9.57;1.33;;;17.60;99.90;;;;;;5038542;28;20068;-68
2022/09/16 10:25:46;;;;;;;8.73;1.33;;;17.60;99.90;;;;;;5054775;28;20044;-67
2022/09/16 10:28:20;;;;;;;8.55;1.45;;;17.70;99.90;;;;;;5051165;28;20479;-67
2022/09/16 10:30:55;;;;;;;9.98;1.95;;;17.60;99.90;;;;;;5051796;28;20040;-68
2022/09/16 10:33:25;;;;;;;10.73;1.67;;;17.40;99.90;;;;;;5052951;28;20037;-67
2022/09/16 10:36:04;;;;;;;6.78;1.02;;;17.80;99.90;;;;;;5051696;28;20045;-67
2022/09/16 10:38:40;;;;;;;8.43;1.33;;;17.60;99.90;;;;;;5053019;28;20037;-68
2022/09/16 10:41:13;;;;;;;7.95;1.40;;;17.30;99.90;;;;;;5053337;28;20044;-67
2022/09/16 10:43:48;;;;;;;10.32;1.50;;;17.30;99.90;;;;;;5053344;28;20037;-67
2022/09/16 10:46:15;;;;;;;7.45;1.40;;;17.20;99.90;;;;;;5047999;28;20041;-67
2022/09/16 10:48:42;;;;;;;8.68;1.42;;;17.10;99.90;;;;;;5052895;28;20115;-67
2022/09/16 10:51:22;;;;;;;8.60;1.55;;;17.20;99.90;;;;;;5052571;28;20036;-68
2022/09/16 10:53:54;;;;;;;6.97;1.20;;;17.20;99.90;;;;;;5051547;28;20052;-67
2022/09/16 10:56:23;;;;;;;7.03;1.30;;;17.30;99.90;;;;;;5051636;28;20060;-67
2022/09/16 10:58:59;;;;;;;9.68;1.42;;;17.20;99.90;;;;;;5051497;28;20040;-67
2022/09/16 11:01:59;;;;;;;6.28;1.02;;;17.20;99.90;;;;;;5052470;28;20527;-67
2022/09/16 11:04:39;;;;;;;7.30;1.30;;;17.20;99.90;;;;;;5051429;28;20091;-67
2022/09/16 11:07:33;;;;;;;8.93;1.30;;;17.30;99.90;;;;;;5053094;28;20083;-68
2022/09/16 11:10:22;;;;;;;7.05;1.42;;;17.40;99.90;;;;;;5052520;28;20037;-67
2022/09/16 11:13:09;;;;;;;9.00;1.20;;;17.50;99.90;;;;;;5051565;28;20080;-67
2022/09/16 11:15:57;;;;;;;9.38;1.92;;;17.40;99.90;;;;;;5048852;28;20080;-65
2022/09/16 11:19:00;;;;;;;9.05;1.17;;;17.40;99.90;;;;;;5049923;28;20044;-65
2022/09/16 11:21:57;;;;;;;8.02;1.23;;;17.60;99.90;;;;;;5050218;28;20132;-65
2022/09/16 11:24:39;;;;;;;6.68;1.23;;;17.40;99.90;;;;;;5049671;28;20033;-65
2022/09/16 11:27:26;;;;;;;6.25;1.15;;;17.40;99.90;;;;;;5050000;28;20506;-65
2022/09/16 11:30:11;;;;;;;6.90;0.98;;;17.50;99.90;;;;;;5050742;28;20036;-66
2022/09/16 11:32:39;;;;;;;;;;;17.40;99.90;;;;;;5051657;28;20094;-66
2022/09/16 11:35:33;;;;;;;12.07;1.48;;;17.10;99.90;;;;;;5053881;28;19916;-66
2022/09/16 11:38:24;;;;;;;6.28;1.20;;;17.10;99.90;;;;;;5054764;28;20052;-66
2022/09/16 11:40:56;;;;;;;12.32;1.60;;;17.20;99.90;;;;;;5054691;28;20442;-66
2022/09/16 11:43:46;;;;;;;11.00;1.73;;;17.20;99.90;;;;;;5052046;28;20451;-66
2022/09/16 11:46:43;;;;;;;6.78;1.15;;;17.20;99.90;;;;;;5054435;28;20479;-65
2022/09/16 11:49:45;;;;;;;6.15;1.00;;;17.30;99.90;;;;;;5054617;28;20495;-66
2022/09/16 11:52:39;;;;;;;12.88;1.23;;;17.30;99.90;;;;;;5055588;28;20041;-66
2022/09/16 11:55:05;;;;;;;9.65;1.23;;;17.40;99.90;;;;;;5055097;28;20108;-66
2022/09/16 11:57:38;;;;;;;7.18;1.00;;;17.20;99.90;;;;;;5054152;28;20411;-67
2022/09/16 12:00:11;;;;;;;5.38;0.80;;;17.60;99.90;;;;;;5054251;28;20053;-66
2022/09/16 12:02:58;;;;;;;5.47;1.45;;;17.10;99.90;;;;;;5053943;28;20097;-66
2022/09/16 12:05:29;;;;;;;10.65;2.00;;;16.80;99.90;;;;;;5052772;28;20151;-66
2022/09/16 12:08:25;;;;;;;11.10;1.98;;;16.70;99.90;;;;;;5053903;28;20831;-66
2022/09/16 12:10:59;;;;;;;10.15;0.90;;;16.30;99.90;;;;;;5052550;28;20036;-66
2022/09/16 12:13:43;;;;;;;8.50;1.15;;;16.20;99.90;;;;;;5050872;28;20060;-66
2022/09/16 12:16:14;;;;;;;11.32;2.17;;;16.30;99.90;;;;;;5055017;28;20506;-68
2022/09/16 12:18:49;;;;;;;11.35;1.35;;;16.30;99.90;;;;;;5054868;28;20040;-68
2022/09/16 12:21:27;;;;;;;9.02;1.52;;;16.50;99.90;;;;;;5053870;28;20044;-66
2022/09/16 12:24:15;;;;;;;9.80;1.98;;;16.60;99.90;;;;;;5055202;28;20098;-66
2022/09/16 12:26:54;;;;;;;11.43;1.52;;;16.60;99.90;;;;;;5051144;28;20051;-66
2022/09/16 12:29:30;;;;;;;7.50;0.98;;;16.90;99.90;;;;;;5053523;28;20076;-68
2022/09/16 12:32:42;;;;;;;7.63;1.02;;;17.20;99.90;;;;;;5049938;28;20123;-66
2022/09/16 12:35:39;;;;;;;13.00;1.40;;;17.00;99.90;;;;;;5017742;28;20045;-68
2022/09/16 12:38:15;;;;;;;13.80;2.05;;;17.10;99.90;;;;;;5052163;28;20029;-67
2022/09/16 12:41:06;;;;;;;11.95;1.63;;;17.10;99.90;;;;;;5054456;28;20044;-67
2022/09/16 12:43:53;;;;;;;7.63;1.33;;;16.80;99.90;;;;;;5050505;28;20037;-69
2022/09/16 12:46:21;;;;;;;8.18;1.98;;;16.60;99.90;;;;;;5052087;28;20562;-68
2022/09/16 12:49:09;;;;;;;8.48;1.55;;;16.60;99.90;;;;;;5052920;28;20037;-68
2022/09/16 12:51:57;;;;;;;9.20;1.50;;;16.60;99.90;;;;;;5051589;28;20037;-70
2022/09/16 12:54:43;;;;;;;10.85;2.15;;;16.60;99.90;;;;;;5070187;28;20518;-69
2022/09/16 12:57:33;;;;;;;11.05;1.50;;;16.70;99.90;;;;;;5067848;28;20529;-68
2022/09/16 13:00:14;;;;;;;7.53;1.13;;;16.90;99.90;;;;;;5036009;28;20041;-68
2022/09/16 13:02:46;;;;;;;14.02;1.48;;;16.80;99.90;;;;;;5054415;28;20395;-68
2022/09/16 13:05:16;;;;;;;8.73;1.63;;;17.10;99.90;;;;;;5053990;28;20170;-68
2022/09/16 13:07:42;;;;;;;12.18;3.38;;;17.20;99.90;;;;;;5054448;28;20052;-68
2022/09/16 13:10:35;;;;;;;9.65;1.45;;;17.20;99.90;;;;;;5053447;28;20487;-68
2022/09/16 13:13:02;;;;;;;15.98;2.75;;;17.10;99.90;;;;;;5048158;28;20048;-68
2022/09/16 13:15:34;;;;;;;10.15;2.10;;;17.00;99.90;;;;;;5053366;28;20045;-70
2022/09/16 13:18:22;;;;;;;12.02;1.88;;;16.80;99.90;;;;;;5053991;28;20033;-67
2022/09/16 13:21:00;;;;;;;8.20;2.20;;;16.90;99.90;;;;;;5051479;28;20032;-68